Time;durP1;ratioP1;P1;durP2;ratioP2;P2;SDS_P1;SDS_P2;PMS_P1;PMS_P2;Temp;Humidity;BMP_temperature;BMP_pressure;BME280_temperature;BME280_humidity;BME280_pressure;Samples;Min_cycle;Max_cycle;Signal;HPM_P1;HPM_P2
2021/12/02 00:01:17;;;;;;;4.40;2.08;;;;;;;-2.64;83.48;98101.28;4941740;29;20515;-78
2021/12/02 00:03:46;;;;;;;4.93;1.67;;;;;;;-2.57;82.88;98114.13;4942558;28;20043;-79
2021/12/02 00:06:16;;;;;;;6.40;2.63;;;;;;;-2.65;82.91;98097.00;4940226;29;20051;-77
2021/12/02 00:08:43;;;;;;;4.10;2.15;;;;;;;-2.70;82.66;98090.97;4920411;29;20054;-78
2021/12/02 00:11:09;;;;;;;4.68;2.33;;;;;;;-2.79;82.62;98087.47;4939329;29;20134;-76
2021/12/02 00:21:19;;;;;;;;;;;;;;;-2.83;83.02;98123.88;4943615;29;20035;-78
2021/12/02 00:23:51;;;;;;;6.10;2.40;;;;;;;-3.09;82.82;98088.63;4927464;29;19918;-78
2021/12/02 00:26:18;;;;;;;;;;;;;;;-2.89;82.58;98142.47;4941802;29;20057;-79
2021/12/02 00:28:51;;;;;;;5.10;2.42;;;;;;;-2.87;83.37;98145.88;4942785;29;19966;-78
2021/12/02 00:31:20;;;;;;;7.35;2.88;;;;;;;-2.89;82.45;98156.84;4942073;29;20082;-79
2021/12/02 00:33:49;;;;;;;6.75;3.33;;;;;;;-3.00;82.56;98149.03;4924251;29;20040;-83
2021/12/02 00:36:16;;;;;;;6.45;2.42;;;;;;;-3.07;82.50;98155.69;4941274;29;20134;-81
2021/12/02 00:38:44;;;;;;;4.95;2.40;;;;;;;-3.21;82.37;98129.13;4937000;29;20079;-82
2021/12/02 00:41:12;;;;;;;6.82;2.53;;;;;;;-3.08;82.68;98161.59;4938921;28;20047;-78
2021/12/02 00:43:39;;;;;;;7.85;2.38;;;;;;;-3.15;82.79;98148.75;4923472;29;20551;-78
2021/12/02 00:46:11;;;;;;;6.28;3.00;;;;;;;-2.98;82.70;98177.06;4939301;29;20501;-78
2021/12/02 00:48:38;;;;;;;6.82;3.20;;;;;;;-2.98;82.52;98177.06;4938220;29;20061;-80
2021/12/02 00:51:05;;;;;;;5.05;2.67;;;;;;;-3.17;82.42;98161.41;4936149;29;20043;-82
2021/12/02 00:53:34;;;;;;;5.07;2.72;;;;;;;-3.01;82.65;98193.13;4938030;29;20137;-78
2021/12/02 00:56:05;;;;;;;7.20;2.33;;;;;;;-3.03;82.66;98185.47;4937600;29;20043;-79
2021/12/02 00:58:32;;;;;;;5.20;2.05;;;;;;;-3.04;82.85;98188.84;4937701;29;20440;-78
2021/12/02 01:00:58;;;;;;;5.88;2.55;;;;;;;-3.10;83.16;98172.59;4940047;29;20078;-79
2021/12/02 01:03:26;;;;;;;6.40;2.63;;;;;;;-2.93;82.80;98190.72;4922618;29;20039;-79
2021/12/02 01:05:52;;;;;;;7.22;3.08;;;;;;;-2.89;82.86;98213.75;4943916;29;20091;-80
2021/12/02 01:08:19;;;;;;;5.72;2.53;;;;;;;-2.85;82.77;98214.66;4939568;29;20043;-79
2021/12/02 01:10:45;;;;;;;5.45;2.83;;;;;;;-2.84;82.61;98212.94;4921842;29;20047;-79
2021/12/02 01:13:12;;;;;;;5.90;2.80;;;;;;;-3.20;82.75;98146.94;4927240;29;20085;-78
2021/12/02 01:15:38;;;;;;;5.80;2.63;;;;;;;-2.91;83.00;98194.16;4939057;29;20042;-78
2021/12/02 01:18:04;;;;;;;7.88;2.97;;;;;;;-2.77;82.70;98218.22;4940017;29;20059;-76
2021/12/02 01:20:31;;;;;;;7.45;2.80;;;;;;;-2.85;82.96;98201.91;4940080;28;20106;-79
2021/12/02 01:23:01;;;;;;;5.00;2.45;;;;;;;-2.75;82.47;98234.34;4943970;29;20035;-77
2021/12/02 01:25:30;;;;;;;5.88;2.85;;;;;;;-2.85;82.28;98227.38;4916204;29;20078;-77
2021/12/02 01:27:58;;;;;;;5.63;2.55;;;;;;;-2.96;82.17;98217.00;4922826;29;20049;-79
2021/12/02 01:30:29;;;;;;;5.05;2.63;;;;;;;-2.97;82.75;98214.38;4922817;29;20644;-79
2021/12/02 01:33:00;;;;;;;6.75;2.70;;;;;;;-2.82;82.87;98230.00;4925745;29;20051;-80
2021/12/02 01:35:27;;;;;;;3.95;2.03;;;;;;;-2.83;82.71;98238.47;4927445;29;20043;-78
2021/12/02 01:37:53;;;;;;;3.15;1.80;;;;;;;-2.90;82.85;98222.22;4937089;29;20139;-78
2021/12/02 01:40:19;;;;;;;5.30;1.98;;;;;;;-2.71;83.08;98232.75;4922431;29;20134;-78
2021/12/02 01:42:47;;;;;;;4.32;1.88;;;;;;;-2.66;82.97;98228.59;4937316;29;20084;-75
2021/12/02 01:45:16;;;;;;;5.05;2.33;;;;;;;-2.82;82.32;98224.91;4936929;29;20472;-82
2021/12/02 01:47:48;;;;;;;3.30;1.65;;;;;;;-2.60;83.22;98253.31;4923030;29;20466;-79
2021/12/02 01:50:16;;;;;;;4.60;1.70;;;;;;;-2.59;82.39;98249.94;4938539;29;20050;-80
2021/12/02 01:52:44;;;;;;;3.85;2.00;;;;;;;-2.55;82.71;98245.75;4936238;29;20039;-77
2021/12/02 01:55:15;;;;;;;2.58;1.73;;;;;;;-2.52;83.00;98256.84;4938276;29;21169;-78
2021/12/02 01:57:47;;;;;;;3.42;1.70;;;;;;;-2.70;82.44;98225.94;4938147;29;20074;-81
2021/12/02 02:00:20;;;;;;;4.13;1.77;;;;;;;-2.54;82.69;98261.09;4938628;29;20106;-77
2021/12/02 02:02:47;;;;;;;4.00;1.70;;;;;;;-2.58;82.35;98241.47;4928100;29;20047;-77
2021/12/02 02:05:16;;;;;;;4.32;1.65;;;;;;;-2.55;82.55;98243.22;4932217;29;20067;-78
2021/12/02 02:07:59;;;;;;;3.22;1.98;;;;;;;-2.40;82.60;98257.94;4938748;29;20035;-78
2021/12/02 02:10:26;;;;;;;6.15;2.20;;;;;;;-2.46;83.01;98251.03;4958211;29;20046;-76
2021/12/02 02:12:57;;;;;;;4.43;2.10;;;;;;;-2.29;83.22;98271.72;4957482;29;20083;-79
2021/12/02 02:15:24;;;;;;;4.97;2.30;;;;;;;-2.40;82.95;98245.19;4948385;29;20050;-76
2021/12/02 02:18:02;;;;;;;4.00;1.85;;;;;;;-2.24;83.18;98252.28;4942685;29;20074;-76
2021/12/02 02:20:47;;;;;;;3.75;1.83;;;;;;;-2.20;82.61;98265.91;4949381;29;20556;-79
2021/12/02 02:23:13;;;;;;;3.08;1.75;;;;;;;-2.21;82.58;98269.34;4947372;29;20050;-79
2021/12/02 02:29:18;;;;;;;2.03;1.48;;;;;;;-2.28;82.38;98275.97;4938627;29;20035;-79
2021/12/02 02:31:44;;;;;;;2.38;1.38;;;;;;;-2.27;82.89;98275.16;4921009;29;20070;-80
2021/12/02 02:34:11;;;;;;;1.65;1.05;;;;;;;-2.26;82.39;98279.41;4939034;29;20047;-82
2021/12/02 02:36:51;;;;;;;2.08;1.48;;;;;;;-2.54;82.07;98243.25;4937520;29;20400;-78
2021/12/02 02:39:17;;;;;;;2.65;1.23;;;;;;;-2.39;81.87;98282.59;4938498;29;20050;-78
2021/12/02 02:41:45;;;;;;;2.42;1.40;;;;;;;-2.45;82.44;98276.53;4938096;29;20523;-80
2021/12/02 02:44:11;;;;;;;4.32;1.90;;;;;;;-2.44;82.28;98270.63;4939865;29;20052;-77
2021/12/02 02:46:40;;;;;;;2.50;1.60;;;;;;;-2.24;83.00;98298.16;4923021;29;20125;-79
2021/12/02 02:49:09;;;;;;;2.47;1.55;;;;;;;-2.32;82.36;98282.72;4930678;29;20059;-77
2021/12/02 02:51:38;;;;;;;2.25;1.55;;;;;;;-2.19;82.50;98296.56;4913414;29;20039;-79
2021/12/02 02:54:06;;;;;;;4.35;1.48;;;;;;;-2.25;82.40;98300.69;4940404;29;20094;-77
2021/12/02 02:56:36;;;;;;;2.90;1.40;;;;;;;-2.29;82.35;98297.19;4943007;29;20043;-79
2021/12/02 03:01:44;;;;;;;3.95;1.60;;;;;;;-2.23;82.18;98302.41;4942984;29;20563;-80
2021/12/02 03:04:27;;;;;;;3.28;1.67;;;;;;;-2.32;82.56;98298.00;4935508;29;20055;-81
2021/12/02 03:07:05;;;;;;;2.08;1.40;;;;;;;-2.37;82.52;98288.56;4919175;29;20047;-82
2021/12/02 03:17:12;;;;;;;3.25;1.55;;;;;;;-2.42;81.93;98279.16;4938947;28;20139;-77
2021/12/02 03:19:43;;;;;;;2.05;1.10;;;;;;;-2.30;81.91;98310.75;4940705;29;20130;-80
2021/12/02 03:22:09;;;;;;;3.80;1.67;;;;;;;-2.39;81.92;98313.16;4940728;29;20039;-79
2021/12/02 03:24:35;;;;;;;7.65;1.90;;;;;;;-2.50;81.87;98313.78;4936978;29;20062;-76
2021/12/02 03:27:02;;;;;;;2.92;1.60;;;;;;;-2.70;81.69;98276.88;4939803;29;20075;-76
2021/12/02 03:29:28;;;;;;;2.60;1.05;;;;;;;-2.54;82.22;98319.69;4941966;29;20031;-78
2021/12/02 03:31:53;;;;;;;2.88;1.30;;;;;;;-2.45;82.48;98330.03;4942095;29;20532;-80
2021/12/02 03:34:20;;;;;;;1.95;1.23;;;;;;;-2.47;82.03;98313.00;4941097;29;20050;-76
2021/12/02 03:36:45;;;;;;;3.00;1.48;;;;;;;-2.57;82.36;98291.59;4916570;29;20050;-78
2021/12/02 03:39:12;;;;;;;2.63;1.65;;;;;;;-2.34;82.28;98320.06;4941146;28;20396;-77
2021/12/02 03:41:39;;;;;;;3.53;1.30;;;;;;;-2.18;82.58;98331.41;4942199;29;20032;-78
2021/12/02 03:44:06;;;;;;;1.88;1.38;;;;;;;-2.17;82.01;98328.03;4940152;29;20066;-75
2021/12/02 03:46:33;;;;;;;3.55;1.70;;;;;;;-2.35;81.95;98314.94;4940193;29;20572;-77
2021/12/02 03:48:59;;;;;;;4.00;1.33;;;;;;;-2.27;82.23;98326.13;4934215;29;20461;-77
2021/12/02 03:51:27;;;;;;;2.60;1.63;;;;;;;-2.28;81.77;98337.13;4941460;29;20469;-75
2021/12/02 03:53:53;;;;;;;2.22;1.40;;;;;;;-2.29;82.24;98340.53;4940330;28;20043;-78
2021/12/02 03:56:20;;;;;;;2.58;1.60;;;;;;;-2.34;82.57;98320.06;4943469;29;20031;-75
2021/12/02 03:58:47;;;;;;;3.53;2.10;;;;;;;-2.19;82.08;98347.53;4925577;29;20049;-78
2021/12/02 04:01:15;;;;;;;3.85;2.15;;;;;;;-2.25;82.25;98334.66;4942946;29;20501;-76
2021/12/02 04:03:42;;;;;;;4.40;2.33;;;;;;;-2.15;81.89;98346.75;4947890;29;20130;-75
2021/12/02 04:06:09;;;;;;;2.95;1.92;;;;;;;-2.14;81.64;98351.03;4946681;29;20043;-76
2021/12/02 04:11:18;;;;;;;3.38;1.80;;;;;;;-2.04;82.16;98344.41;4956852;29;20044;-78
2021/12/02 04:16:21;;;;;;;5.57;1.63;;;;;;;-2.12;81.92;98361.25;4952503;29;20051;-77
2021/12/02 04:18:47;;;;;;;4.22;1.88;;;;;;;-2.30;81.73;98349.88;4923268;29;20035;-79
2021/12/02 04:21:13;;;;;;;5.30;1.85;;;;;;;-2.35;81.51;98374.41;4933191;29;20062;-76
2021/12/02 04:23:39;;;;;;;4.38;1.88;;;;;;;-2.55;81.71;98358.72;4956672;29;20066;-77
2021/12/02 04:26:06;;;;;;;3.65;1.88;;;;;;;-2.49;81.57;98383.47;4953469;29;20034;-78
2021/12/02 04:28:32;;;;;;;4.50;1.80;;;;;;;-2.59;82.09;98390.91;4946157;29;20117;-78
2021/12/02 04:30:58;;;;;;;3.47;1.63;;;;;;;-2.52;82.05;98389.31;4946274;29;20051;-80
2021/12/02 04:33:24;;;;;;;4.13;1.50;;;;;;;-2.55;81.94;98383.31;4943833;29;20049;-77
2021/12/02 04:35:50;;;;;;;3.65;1.63;;;;;;;-2.77;81.79;98365.03;4947872;28;20054;-76
2021/12/02 04:38:16;;;;;;;3.15;2.00;;;;;;;-2.70;81.90;98396.59;4954037;29;20047;-78
2021/12/02 04:40:42;;;;;;;2.65;1.70;;;;;;;-2.79;81.50;98403.22;4955133;28;20044;-77
2021/12/02 04:43:09;;;;;;;6.97;1.52;;;;;;;-2.87;81.69;98402.16;4954759;29;20495;-80
2021/12/02 04:45:35;;;;;;;3.83;1.70;;;;;;;-2.92;82.03;98394.44;4947506;29;20039;-77
2021/12/02 04:48:02;;;;;;;3.55;1.60;;;;;;;-2.91;81.94;98411.44;4942242;29;20409;-79
2021/12/02 04:50:27;;;;;;;3.13;1.52;;;;;;;-3.22;81.69;98367.44;4913671;29;20063;-78
2021/12/02 04:52:53;;;;;;;5.53;2.05;;;;;;;-3.15;81.84;98383.72;4933059;29;20035;-78
2021/12/02 04:55:20;;;;;;;3.92;1.52;;;;;;;-3.29;82.31;98365.56;4945724;29;20042;-79
2021/12/02 04:57:47;;;;;;;3.47;1.63;;;;;;;-3.27;81.84;98379.19;4943516;29;20041;-78
2021/12/02 05:00:13;;;;;;;2.35;1.45;;;;;;;-3.20;81.65;98410.75;4944614;29;20361;-78
2021/12/02 05:02:40;;;;;;;3.15;1.55;;;;;;;-3.38;81.81;98401.84;4910806;29;20042;-77
2021/12/02 05:05:08;;;;;;;5.10;1.40;;;;;;;-3.72;81.79;98364.53;4918823;29;20047;-78
2021/12/02 05:07:34;;;;;;;3.13;2.05;;;;;;;-3.66;81.63;98395.19;4925377;29;20039;-76
2021/12/02 05:10:00;;;;;;;2.97;1.70;;;;;;;-3.59;81.67;98430.16;4941567;29;20039;-76
2021/12/02 05:12:26;;;;;;;3.75;1.98;;;;;;;-3.74;81.89;98405.19;4927423;29;20059;-76
2021/12/02 05:14:52;;;;;;;5.35;1.88;;;;;;;-3.75;81.93;98422.94;4941735;29;20517;-80
2021/12/02 05:17:18;;;;;;;3.28;1.67;;;;;;;-3.83;81.81;98422.72;4939551;29;20046;-78
2021/12/02 05:19:44;;;;;;;3.65;1.65;;;;;;;-3.89;82.22;98445.47;4941260;28;20043;-79
2021/12/02 05:22:10;;;;;;;3.78;1.63;;;;;;;-4.36;82.01;98370.50;4939540;29;20062;-78
2021/12/02 05:24:36;;;;;;;4.75;1.73;;;;;;;-4.02;81.90;98434.94;4940424;29;20051;-79
2021/12/02 05:27:02;;;;;;;3.42;1.77;;;;;;;-4.04;82.09;98439.13;4946555;29;20040;-76
2021/12/02 05:29:28;;;;;;;3.63;2.00;;;;;;;-4.33;82.15;98405.28;4924024;29;20103;-78
2021/12/02 05:31:54;;;;;;;9.68;1.80;;;;;;;-4.20;81.90;98430.22;4940313;29;20061;-76
2021/12/02 05:34:20;;;;;;;4.35;2.10;;;;;;;-4.14;82.18;98443.09;4941743;29;20259;-78
2021/12/02 05:36:45;;;;;;;5.38;2.00;;;;;;;-4.11;82.24;98443.16;4932726;29;20454;-79
2021/12/02 05:39:11;;;;;;;4.28;1.80;;;;;;;-4.08;81.47;98452.53;4943625;28;20050;-78
2021/12/02 05:41:37;;;;;;;4.45;1.90;;;;;;;-4.10;81.92;98464.38;4912935;29;20043;-77
2021/12/02 05:44:03;;;;;;;3.22;1.75;;;;;;;-4.17;82.25;98449.75;4947213;29;20043;-77
2021/12/02 05:46:29;;;;;;;4.10;2.17;;;;;;;-4.36;81.81;98416.22;4914326;29;20039;-80
2021/12/02 05:48:55;;;;;;;5.05;2.28;;;;;;;-3.90;82.15;98446.28;4943146;28;20042;-81
2021/12/02 05:51:21;;;;;;;6.15;1.83;;;;;;;-3.40;81.72;98417.91;4937135;29;20515;-77
2021/12/02 05:53:47;;;;;;;3.72;2.05;;;;;;;-2.61;81.13;98463.03;4939491;29;20067;-77
2021/12/02 05:56:13;;;;;;;2.80;1.70;;;;;;;-2.49;81.07;98463.28;4927077;29;20065;-77
2021/12/02 05:58:38;;;;;;;3.80;1.77;;;;;;;-2.38;80.19;98465.22;4924079;29;20098;-79
2021/12/02 06:01:04;;;;;;;3.28;1.90;;;;;;;-3.01;80.48;98412.03;4941464;29;20035;-82
2021/12/02 06:03:31;;;;;;;2.72;1.80;;;;;;;-3.11;80.49;98428.78;4923789;29;20070;-78
2021/12/02 06:05:56;;;;;;;4.13;2.20;;;;;;;-3.05;80.66;98456.94;4938538;29;20373;-76
2021/12/02 06:08:22;;;;;;;4.05;1.83;;;;;;;-3.07;80.14;98468.75;4939845;29;20071;-78
2021/12/02 06:10:54;;;;;;;2.83;1.92;;;;;;;-3.11;80.80;98454.22;4941233;29;20043;-80
2021/12/02 06:13:25;;;;;;;3.47;2.10;;;;;;;-2.99;80.82;98480.81;4928044;29;20043;-77
2021/12/02 06:15:51;;;;;;;3.55;1.80;;;;;;;-2.94;80.97;98479.22;4942009;29;20044;-77
2021/12/02 06:18:17;;;;;;;3.90;1.77;;;;;;;-2.86;80.30;98459.91;4912475;29;20041;-77
2021/12/02 06:20:43;;;;;;;4.78;2.35;;;;;;;-2.77;80.35;98488.16;4944586;29;20062;-76
2021/12/02 06:23:10;;;;;;;3.40;2.20;;;;;;;-2.80;80.66;98493.16;4952581;29;20095;-78
2021/12/02 06:28:05;;;;;;;4.25;2.30;;;;;;;-2.90;80.51;98501.41;4947281;29;20038;-77
2021/12/02 06:30:32;;;;;;;3.88;2.22;;;;;;;-3.07;80.63;98478.94;4941941;29;20055;-78
2021/12/02 06:32:57;;;;;;;3.92;2.22;;;;;;;-3.34;80.67;98446.03;4927317;29;20050;-77
2021/12/02 06:35:24;;;;;;;4.53;2.25;;;;;;;-3.11;79.92;98512.75;4944446;28;20413;-77
2021/12/02 06:37:52;;;;;;;4.03;2.00;;;;;;;-3.33;80.28;98480.84;4944041;29;20039;-77
2021/12/02 06:40:18;;;;;;;4.82;1.95;;;;;;;-3.11;80.19;98502.59;4925491;29;20043;-80
2021/12/02 06:42:45;;;;;;;6.70;2.45;;;;;;;-3.11;80.49;98500.03;4941968;29;20358;-82
2021/12/02 06:45:14;;;;;;;4.28;2.30;;;;;;;-3.11;80.23;98505.13;4921092;29;20085;-78
2021/12/02 06:47:41;;;;;;;5.18;2.22;;;;;;;-3.07;80.72;98511.16;4943886;29;20044;-78
2021/12/02 06:50:13;;;;;;;5.40;2.38;;;;;;;-2.99;80.45;98519.00;4930754;29;20107;-77
2021/12/02 06:52:39;;;;;;;4.35;2.60;;;;;;;-3.04;80.60;98504.47;4926043;29;20110;-76
2021/12/02 06:55:05;;;;;;;4.90;2.60;;;;;;;-3.03;80.28;98508.75;4941083;28;20047;-79
2021/12/02 06:57:31;;;;;;;3.65;2.33;;;;;;;-2.98;80.52;98497.81;4938495;29;20051;-78
2021/12/02 07:00:02;;;;;;;9.38;2.65;;;;;;;-3.01;80.06;98495.19;4924411;29;20460;-80
2021/12/02 07:02:30;;;;;;;10.25;5.05;;;;;;;-2.94;80.22;98499.59;4898653;29;20051;-78
2021/12/02 07:04:58;;;;;;;6.10;2.80;;;;;;;-2.72;80.49;98529.84;4938814;29;20047;-82
2021/12/02 07:07:24;;;;;;;4.03;2.42;;;;;;;-2.84;80.15;98499.00;4941711;28;20035;-75
2021/12/02 07:09:50;;;;;;;4.50;2.50;;;;;;;-2.65;80.04;98522.34;4936633;29;20036;-79
2021/12/02 07:12:19;;;;;;;4.78;1.73;;;;;;;-2.58;80.65;98511.50;4921582;29;20132;-81
2021/12/02 07:14:47;;;;;;;3.72;2.45;;;;;;;-2.54;80.42;98485.28;4922747;29;20040;-77
2021/12/02 07:17:13;;;;;;;4.80;2.60;;;;;;;-2.43;80.27;98496.53;4938460;29;20253;-78
2021/12/02 07:19:40;;;;;;;5.25;2.30;;;;;;;-2.11;80.24;98531.22;4942244;29;20142;-81
2021/12/02 07:22:06;;;;;;;3.55;2.05;;;;;;;-2.06;80.45;98514.34;4940818;29;20462;-77
2021/12/02 07:24:32;;;;;;;5.85;3.00;;;;;;;-2.10;80.15;98507.44;4908278;29;20078;-82
2021/12/02 07:26:57;;;;;;;5.75;2.40;;;;;;;-2.00;80.21;98517.03;4942022;29;20051;-80
2021/12/02 07:29:23;;;;;;;4.80;2.67;;;;;;;-2.02;80.53;98513.56;4938697;29;20400;-78
2021/12/02 07:31:50;;;;;;;5.25;2.70;;;;;;;-2.07;80.03;98511.72;4939154;29;20047;-77
2021/12/02 07:34:17;;;;;;;4.93;2.45;;;;;;;-1.99;80.00;98510.22;4938818;28;20070;-77
2021/12/02 07:36:44;;;;;;;6.32;2.63;;;;;;;-1.99;80.08;98502.56;4943339;28;20066;-79
2021/12/02 07:39:10;;;;;;;4.68;2.38;;;;;;;-1.89;79.91;98507.03;4940313;29;20044;-77
2021/12/02 07:41:40;;;;;;;10.00;2.60;;;;;;;-1.70;80.26;98520.16;4941673;29;20436;-78
2021/12/02 07:44:06;;;;;;;5.07;2.33;;;;;;;-1.74;79.82;98503.91;4930101;29;20043;-78
2021/12/02 07:46:32;;;;;;;3.80;2.30;;;;;;;-1.61;79.93;98511.81;4943011;29;20035;-78
2021/12/02 07:48:59;;;;;;;4.30;2.13;;;;;;;-1.53;79.51;98510.25;4943438;29;20090;-78
2021/12/02 07:51:29;;;;;;;4.70;2.20;;;;;;;-1.42;80.00;98524.09;4936650;29;20047;-77
2021/12/02 07:53:58;;;;;;;4.28;1.90;;;;;;;-1.35;80.19;98526.78;4954945;29;20044;-77
2021/12/02 07:56:28;;;;;;;4.20;2.20;;;;;;;-1.56;79.73;98490.66;4944831;29;20133;-81
2021/12/02 07:58:56;;;;;;;5.60;2.33;;;;;;;-1.50;80.07;98504.38;4921039;29;20040;-81
2021/12/02 08:01:24;;;;;;;5.72;2.60;;;;;;;-2.22;80.06;98383.16;4935302;29;20047;-78
2021/12/02 08:03:53;;;;;;;3.72;1.95;;;;;;;-1.36;79.84;98518.25;4951410;29;20099;-77
2021/12/02 08:06:19;;;;;;;4.28;2.40;;;;;;;-2.45;79.66;98345.31;4922197;29;20039;-78
2021/12/02 08:08:46;;;;;;;5.40;2.70;;;;;;;-1.43;79.93;98508.75;4952726;29;20399;-78
2021/12/02 08:11:12;;;;;;;4.32;1.92;;;;;;;-1.42;80.12;98506.22;4951452;29;20050;-78
2021/12/02 08:13:41;;;;;;;3.65;2.33;;;;;;;-2.00;79.25;98406.50;4920607;29;20046;-79
2021/12/02 08:16:13;;;;;;;4.45;2.63;;;;;;;-2.31;79.38;98357.47;4924627;29;20052;-80
2021/12/02 08:18:42;;;;;;;4.22;2.20;;;;;;;-1.67;79.82;98456.44;4950730;28;20046;-79
2021/12/02 08:21:08;;;;;;;4.93;2.42;;;;;;;-1.42;79.48;98484.94;4950057;29;20557;-78
2021/12/02 08:23:33;;;;;;;5.15;2.38;;;;;;;-1.37;79.71;98488.44;4951602;29;20056;-79
2021/12/02 08:26:01;;;;;;;5.85;2.70;;;;;;;-1.29;79.55;98509.88;4953012;28;20044;-78
2021/12/02 08:28:28;;;;;;;5.25;2.50;;;;;;;-1.29;79.81;98509.88;4943328;29;20069;-78
2021/12/02 08:30:55;;;;;;;6.45;3.08;;;;;;;-1.27;79.43;98502.22;4958961;29;20418;-78
2021/12/02 08:33:21;;;;;;;6.00;3.03;;;;;;;-1.34;79.21;98493.59;4957294;29;20039;-79
2021/12/02 08:35:48;;;;;;;8.30;2.97;;;;;;;-1.30;79.08;98492.84;4948041;29;20114;-77
2021/12/02 08:38:16;;;;;;;5.85;2.67;;;;;;;-1.29;79.60;98499.66;4945811;29;20040;-78
2021/12/02 08:40:43;;;;;;;5.55;2.42;;;;;;;-1.36;78.95;98508.03;4949981;29;20040;-76
2021/12/02 08:43:12;;;;;;;4.55;2.42;;;;;;;-1.44;79.56;98507.91;4945722;29;20044;-79
2021/12/02 08:45:40;;;;;;;3.55;1.98;;;;;;;-1.48;79.14;98508.66;4930615;29;20048;-78
2021/12/02 08:48:06;;;;;;;4.55;2.17;;;;;;;-1.49;79.42;98508.66;4942337;28;20050;-78
2021/12/02 08:50:34;;;;;;;3.70;1.92;;;;;;;-1.43;79.21;98517.28;4926064;29;20067;-78
2021/12/02 08:53:01;;;;;;;3.42;2.20;;;;;;;-1.43;79.08;98495.97;4940722;29;20045;-83
2021/12/02 08:55:31;;;;;;;3.95;2.00;;;;;;;-1.46;79.02;98483.19;4943864;29;20059;-81
2021/12/02 08:57:58;;;;;;;4.38;1.88;;;;;;;-1.53;79.08;98475.41;4896018;29;20063;-81
2021/12/02 09:00:32;;;;;;;4.43;2.45;;;;;;;-1.37;79.30;98504.63;4943492;29;20465;-79
2021/12/02 09:03:16;;;;;;;;;;;;;;;-1.34;78.88;98498.72;4935350;29;20539;-78
2021/12/02 09:05:43;;;;;;;4.65;2.55;;;;;;;-1.42;79.34;98477.28;4938691;28;19919;-80
2021/12/02 09:08:09;;;;;;;5.22;2.28;;;;;;;-1.52;78.88;98459.28;4921997;29;20043;-76
2021/12/02 09:10:38;;;;;;;4.85;1.88;;;;;;;-1.37;78.73;98483.34;4940821;29;20039;-79
2021/12/02 09:13:08;;;;;;;4.28;2.05;;;;;;;-1.36;79.08;98482.50;4939584;29;20078;-78
2021/12/02 09:15:38;;;;;;;6.63;2.05;;;;;;;-1.31;79.41;98469.81;4941979;29;20484;-81
2021/12/02 09:18:04;;;;;;;4.50;2.42;;;;;;;-1.22;79.37;98483.63;4939876;29;20525;-77
2021/12/02 09:20:30;;;;;;;5.47;2.28;;;;;;;-1.52;79.07;98431.19;4924206;29;20664;-78
2021/12/02 09:22:56;;;;;;;3.95;2.10;;;;;;;-1.16;78.99;98484.53;4922925;29;20133;-77
2021/12/02 09:25:22;;;;;;;8.18;2.22;;;;;;;-1.29;79.03;98443.50;4937314;29;20171;-78
2021/12/02 09:27:48;;;;;;;3.97;2.05;;;;;;;-0.98;78.79;98478.91;4942673;29;20047;-78
2021/12/02 09:30:16;;;;;;;4.75;2.15;;;;;;;-0.93;79.04;98473.03;4939562;29;20084;-79
2021/12/02 09:32:42;;;;;;;4.45;2.15;;;;;;;-0.89;78.67;98478.19;4943136;29;20040;-80
2021/12/02 09:35:10;;;;;;;3.85;2.28;;;;;;;-0.91;78.69;98479.03;4935124;29;20051;-76
2021/12/02 09:37:36;;;;;;;3.33;1.95;;;;;;;-1.24;77.95;98452.09;4934719;29;20111;-76
2021/12/02 09:40:04;;;;;;;6.95;2.30;;;;;;;-1.32;78.49;98438.34;4934905;29;20036;-77
2021/12/02 09:42:33;;;;;;;6.85;2.53;;;;;;;-1.11;79.16;98447.19;4941225;29;20054;-78
2021/12/02 09:45:02;;;;;;;5.00;2.17;;;;;;;-0.97;78.19;98461.03;4940841;29;20504;-78
2021/12/02 09:47:37;;;;;;;4.15;2.05;;;;;;;-1.10;78.49;98443.81;4940188;29;20265;-80
2021/12/02 09:50:13;;;;;;;4.22;1.90;;;;;;;-1.02;79.03;98423.50;4926990;29;20032;-79
2021/12/02 09:52:41;;;;;;;3.53;2.00;;;;;;;-0.88;78.10;98444.16;4939918;29;20047;-80
2021/12/02 09:55:22;;;;;;;3.88;1.85;;;;;;;-0.86;78.44;98457.81;4939585;29;20042;-76
2021/12/02 09:57:55;;;;;;;4.30;2.00;;;;;;;-0.91;78.29;98448.38;4937547;29;20146;-77
2021/12/02 10:00:29;;;;;;;3.63;1.92;;;;;;;-0.85;78.58;98436.53;4939028;29;20061;-79
2021/12/02 10:03:04;;;;;;;3.95;1.88;;;;;;;-0.87;78.31;98415.22;4938177;29;20044;-80
2021/12/02 10:05:38;;;;;;;3.35;2.03;;;;;;;-0.65;78.41;98434.25;4938686;29;20505;-77
2021/12/02 10:08:08;;;;;;;3.40;1.83;;;;;;;-0.71;78.26;98435.03;4941571;28;20712;-77
2021/12/02 10:10:40;;;;;;;4.70;1.70;;;;;;;-0.76;78.54;98429.88;4922273;29;20118;-79
2021/12/02 10:13:14;;;;;;;3.13;1.67;;;;;;;-0.80;78.94;98412.75;4938652;29;20050;-81
2021/12/02 10:15:49;;;;;;;4.63;1.80;;;;;;;-0.78;78.66;98421.31;4937900;29;20061;-76
2021/12/02 10:18:17;;;;;;;2.80;1.92;;;;;;;-1.04;78.41;98403.06;4946076;29;20134;-78
2021/12/02 10:20:45;;;;;;;3.78;1.80;;;;;;;-1.09;78.43;98410.63;4943303;29;20043;-79
2021/12/02 10:23:23;;;;;;;5.03;2.05;;;;;;;-0.95;77.93;98425.31;4929068;29;20043;-79
2021/12/02 10:25:56;;;;;;;3.10;1.58;;;;;;;-1.00;78.50;98415.03;4942675;29;20094;-79
2021/12/02 10:28:22;;;;;;;3.72;2.03;;;;;;;-0.96;78.67;98411.69;4941211;29;20421;-78
2021/12/02 10:31:02;;;;;;;4.65;2.03;;;;;;;-0.94;78.36;98411.72;4925963;29;20055;-79
2021/12/02 10:33:43;;;;;;;4.90;2.20;;;;;;;-0.88;77.88;98410.94;4923083;29;20043;-80
2021/12/02 10:36:33;;;;;;;4.43;1.90;;;;;;;-1.02;78.04;98390.31;4940569;29;22163;-77
2021/12/02 10:39:09;;;;;;;3.22;1.75;;;;;;;-0.89;78.67;98402.44;4943918;29;20043;-76
2021/12/02 10:41:35;;;;;;;4.88;2.20;;;;;;;-0.90;77.96;98390.50;4941940;29;20063;-74
2021/12/02 10:44:07;;;;;;;3.75;2.40;;;;;;;-0.90;77.08;98418.59;4947257;29;20535;-75
2021/12/02 10:46:33;;;;;;;;;;;;;;;-1.00;77.56;98421.81;4930930;29;20040;-76
2021/12/02 10:48:59;;;;;;;3.58;2.08;;;;;;;-1.10;77.23;98420.81;4927242;29;19919;-81
2021/12/02 10:51:39;;;;;;;4.60;1.80;;;;;;;-1.14;78.01;98416.50;4940672;29;20102;-76
2021/12/02 10:54:08;;;;;;;5.65;2.15;;;;;;;-1.17;77.95;98403.69;4928140;29;20129;-79
2021/12/02 10:56:37;;;;;;;3.53;2.38;;;;;;;-1.24;77.47;98407.84;4942450;29;20038;-79
2021/12/02 10:59:35;;;;;;;3.08;2.25;;;;;;;-1.39;77.32;98391.44;4937593;29;20087;-76
2021/12/02 11:02:19;;;;;;;3.78;1.80;;;;;;;-1.19;78.10;98402.78;4911754;29;20138;-78
2021/12/02 11:04:53;;;;;;;4.50;2.10;;;;;;;-1.28;78.08;98381.41;4938444;29;20116;-78
2021/12/02 11:07:22;;;;;;;3.53;1.83;;;;;;;-1.11;77.74;98403.78;4951445;29;20039;-76
2021/12/02 11:09:50;;;;;;;2.78;1.90;;;;;;;-1.23;77.36;98387.47;4909549;29;20036;-79
2021/12/02 11:12:20;;;;;;;3.33;1.92;;;;;;;-1.22;77.49;98406.16;4947878;29;20039;-77
2021/12/02 11:14:57;;;;;;;4.13;1.83;;;;;;;-1.36;77.61;98390.63;4945394;29;20051;-75
2021/12/02 11:17:25;;;;;;;4.03;2.58;;;;;;;-1.38;77.51;98394.84;4932576;29;20448;-79
2021/12/02 11:19:51;;;;;;;3.50;2.10;;;;;;;-1.30;77.24;98406.06;4945106;29;20187;-75
2021/12/02 11:22:21;;;;;;;3.90;2.22;;;;;;;-1.26;77.26;98391.63;4943515;29;20039;-81
2021/12/02 11:24:49;;;;;;;3.45;1.98;;;;;;;-1.28;77.71;98375.44;4919724;29;20043;-81
2021/12/02 11:27:20;;;;;;;4.45;2.10;;;;;;;-1.16;76.70;98395.19;4920385;29;20043;-77
2021/12/02 11:30:03;;;;;;;6.03;2.28;;;;;;;-1.46;76.80;98359.00;4926153;29;20030;-77
2021/12/02 11:32:33;;;;;;;4.55;2.00;;;;;;;-1.25;77.21;98381.47;4916798;29;20039;-83
2021/12/02 11:35:19;;;;;;;3.10;2.20;;;;;;;-1.22;77.38;98386.63;4944403;29;20094;-75
2021/12/02 11:37:50;;;;;;;5.93;2.38;;;;;;;-1.34;76.78;98376.19;4926553;29;20079;-77
2021/12/02 11:40:28;;;;;;;3.00;1.90;;;;;;;-1.62;77.59;98326.41;4940706;29;20592;-76
2021/12/02 11:42:55;;;;;;;4.10;2.22;;;;;;;-1.57;76.45;98340.13;4941516;29;20036;-77
2021/12/02 11:45:25;;;;;;;2.95;1.70;;;;;;;-1.58;77.33;98335.84;4941652;29;20126;-79
2021/12/02 11:47:53;;;;;;;4.63;1.92;;;;;;;-1.61;76.54;98330.69;4940819;29;20412;-81
2021/12/02 11:50:23;;;;;;;3.67;1.75;;;;;;;-1.46;77.51;98345.38;4927865;29;20046;-80
2021/12/02 11:52:49;;;;;;;3.47;1.88;;;;;;;-1.35;77.59;98340.47;4931633;29;20078;-77
2021/12/02 11:55:18;;;;;;;3.00;1.80;;;;;;;-1.43;77.21;98340.31;4914000;29;20078;-79
2021/12/02 11:57:49;;;;;;;3.90;2.10;;;;;;;-1.63;76.68;98328.09;4926883;29;20055;-77
2021/12/02 12:00:17;;;;;;;3.50;1.92;;;;;;;-1.58;76.94;98341.78;4941095;29;20036;-77
2021/12/02 12:03:16;;;;;;;3.97;1.88;;;;;;;-1.57;76.73;98330.75;4940569;29;20039;-79
2021/12/02 12:06:23;;;;;;;3.63;1.83;;;;;;;-1.72;77.70;98310.94;4915744;29;20050;-78
2021/12/02 12:08:51;;;;;;;2.95;2.08;;;;;;;-1.64;77.20;98335.72;4948646;29;20139;-77
2021/12/02 12:11:30;;;;;;;4.60;1.92;;;;;;;-1.64;77.01;98326.38;4936718;29;20039;-78